createdAt,value
2018-02-04T00:00:09.359Z,1005.48
2018-02-04T00:01:09.336Z,1005.48
2018-02-04T00:02:09.335Z,1005.47
2018-02-04T00:03:09.324Z,1005.44
2018-02-04T00:04:09.318Z,1005.47
2018-02-04T00:05:09.461Z,1005.49
2018-02-04T00:06:09.313Z,1005.53
2018-02-04T00:07:09.317Z,1005.51
2018-02-04T00:08:09.324Z,1005.57
2018-02-04T00:09:09.295Z,1005.55
2018-02-04T00:10:09.300Z,1005.58
2018-02-04T00:11:09.297Z,1005.58
2018-02-04T00:12:09.308Z,1005.55
2018-02-04T00:13:09.300Z,1005.61
2018-02-04T00:14:09.282Z,1005.59
2018-02-04T00:15:09.309Z,1005.61
2018-02-04T00:16:09.280Z,1005.67
2018-02-04T00:17:09.274Z,1005.62
2018-02-04T00:18:09.267Z,1005.60
2018-02-04T00:19:09.340Z,1005.62
2018-02-04T00:20:09.277Z,1005.66
2018-02-04T00:21:09.274Z,1005.66
2018-02-04T00:22:09.263Z,1005.63
2018-02-04T00:23:09.266Z,1005.67
2018-02-04T00:24:09.285Z,1005.68
2018-02-04T00:25:09.256Z,1005.67
2018-02-04T00:26:09.366Z,1005.70
2018-02-04T00:27:09.255Z,1005.70
2018-02-04T00:28:09.244Z,1005.70
2018-02-04T00:29:09.241Z,1005.72
2018-02-04T00:30:09.273Z,1005.70
2018-02-04T00:31:09.223Z,1005.75
2018-02-04T00:32:09.232Z,1005.72
2018-02-04T00:33:09.225Z,1005.73
2018-02-04T00:34:09.241Z,1005.79
2018-02-04T00:35:09.224Z,1005.77
2018-02-04T00:36:09.218Z,1005.86
2018-02-04T00:37:09.219Z,1005.85
2018-02-04T00:38:09.220Z,1005.87
2018-02-04T00:39:09.211Z,1005.89
2018-02-04T00:40:09.199Z,1005.92
2018-02-04T00:41:09.215Z,1005.92
2018-02-04T00:42:09.204Z,1005.94
2018-02-04T00:43:09.186Z,1005.97
2018-02-04T00:44:09.186Z,1005.98
2018-02-04T00:45:09.186Z,1005.98
2018-02-04T00:46:09.186Z,1005.98
2018-02-04T00:47:09.181Z,1006.01
2018-02-04T00:48:09.172Z,1006.02
2018-02-04T00:49:09.177Z,1006.04
2018-02-04T00:50:09.190Z,1006.03
2018-02-04T00:51:09.170Z,1006.07
2018-02-04T00:52:09.180Z,1006.06
2018-02-04T00:53:09.159Z,1006.06
2018-02-04T00:54:09.167Z,1006.07
2018-02-04T00:55:09.156Z,1006.12
2018-02-04T00:56:09.146Z,1006.14
2018-02-04T00:57:09.154Z,1006.15
2018-02-04T00:58:09.151Z,1006.16
2018-02-04T00:59:09.264Z,1006.14
2018-02-04T01:00:09.145Z,1006.19
2018-02-04T01:01:09.127Z,1006.21
2018-02-04T01:02:09.134Z,1006.22
2018-02-04T01:03:09.133Z,1006.25
2018-02-04T01:04:09.129Z,1006.24
2018-02-04T01:05:09.123Z,1006.30
2018-02-04T01:06:09.116Z,1006.30
2018-02-04T01:07:09.118Z,1006.27
2018-02-04T01:08:09.103Z,1006.33
2018-02-04T01:09:09.105Z,1006.33
2018-02-04T01:10:09.110Z,1006.35
2018-02-04T01:11:09.099Z,1006.38
2018-02-04T01:12:09.090Z,1006.37
2018-02-04T01:13:09.943Z,1006.36
2018-02-04T01:14:09.098Z,1006.36
2018-02-04T01:15:09.092Z,1006.36
2018-02-04T01:16:09.079Z,1006.41
2018-02-04T01:17:09.082Z,1006.41
2018-02-04T01:18:09.084Z,1006.42
2018-02-04T01:19:09.123Z,1006.44
2018-02-04T01:20:09.069Z,1006.45
2018-02-04T01:21:09.070Z,1006.51
2018-02-04T01:22:09.066Z,1006.51
2018-02-04T01:23:09.066Z,1006.50
2018-02-04T01:24:09.065Z,1006.54
2018-02-04T01:25:09.059Z,1006.56
2018-02-04T01:26:09.069Z,1006.59
2018-02-04T01:27:09.055Z,1006.58
2018-02-04T01:28:09.045Z,1006.55
2018-02-04T01:29:09.042Z,1006.61
2018-02-04T01:30:09.039Z,1006.61
2018-02-04T01:31:09.039Z,1006.68
2018-02-04T01:32:09.033Z,1006.63
2018-02-04T01:33:09.028Z,1006.73
2018-02-04T01:34:09.027Z,1006.69
2018-02-04T01:35:09.023Z,1006.74
2018-02-04T01:36:09.017Z,1006.75
2018-02-04T01:37:09.023Z,1006.73
2018-02-04T01:38:09.035Z,1006.72
2018-02-04T01:39:09.087Z,1006.71
2018-02-04T01:40:08.999Z,1006.72
2018-02-04T01:41:09.004Z,1006.75
2018-02-04T01:42:09.009Z,1006.76
2018-02-04T01:43:08.994Z,1006.79
2018-02-04T01:44:08.995Z,1006.78
2018-02-04T01:45:08.996Z,1006.78
2018-02-04T01:46:08.983Z,1006.74
2018-02-04T01:47:08.987Z,1006.77
2018-02-04T01:48:08.973Z,1006.77
2018-02-04T01:49:08.995Z,1006.77
2018-02-04T01:50:08.974Z,1006.79
2018-02-04T01:51:08.962Z,1006.75
2018-02-04T01:52:09.439Z,1006.82
2018-02-04T01:53:08.969Z,1006.80
2018-02-04T01:54:08.977Z,1006.77
2018-02-04T01:55:08.964Z,1006.78
2018-02-04T01:56:08.952Z,1006.78
2018-02-04T01:57:08.978Z,1006.80
2018-02-04T01:58:08.949Z,1006.81
2018-02-04T01:59:09.062Z,1006.81
2018-02-04T02:00:08.939Z,1006.82
2018-02-04T02:01:08.945Z,1006.79
2018-02-04T02:02:08.938Z,1006.86
2018-02-04T02:03:08.989Z,1006.85
2018-02-04T02:04:08.929Z,1006.89
2018-02-04T02:05:08.983Z,1006.91
2018-02-04T02:06:08.973Z,1006.88
2018-02-04T02:07:08.915Z,1006.85
2018-02-04T02:08:08.907Z,1006.88
2018-02-04T02:09:08.912Z,1006.90
2018-02-04T02:10:08.981Z,1006.91
2018-02-04T02:11:08.911Z,1006.89
2018-02-04T02:12:08.898Z,1006.91
2018-02-04T02:13:08.910Z,1006.91
2018-02-04T02:14:08.887Z,1006.92
2018-02-04T02:15:08.882Z,1006.95
2018-02-04T02:16:08.882Z,1006.96
2018-02-04T02:17:08.891Z,1006.94
2018-02-04T02:18:08.885Z,1006.91
2018-02-04T02:19:08.882Z,1006.95
2018-02-04T02:20:08.865Z,1006.94
2018-02-04T02:21:08.914Z,1006.94
2018-02-04T02:22:08.875Z,1007.00
2018-02-04T02:23:08.889Z,1007.01
2018-02-04T02:24:08.855Z,1007.00
2018-02-04T02:25:08.862Z,1007.02
2018-02-04T02:26:08.885Z,1006.98
2018-02-04T02:27:08.847Z,1007.02
2018-02-04T02:28:08.853Z,1007.02
2018-02-04T02:29:08.865Z,1007.00
2018-02-04T02:30:08.838Z,1007.04
2018-02-04T02:31:08.830Z,1007.04
2018-02-04T02:32:08.833Z,1007.06
2018-02-04T02:33:08.826Z,1007.09
2018-02-04T02:34:08.824Z,1007.08
2018-02-04T02:35:08.824Z,1007.12
2018-02-04T02:36:08.824Z,1007.12
2018-02-04T02:37:08.821Z,1007.13
2018-02-04T02:38:08.819Z,1007.13
2018-02-04T02:39:08.816Z,1007.13
2018-02-04T02:40:08.806Z,1007.14
2018-02-04T02:41:08.812Z,1007.17
2018-02-04T02:42:08.802Z,1007.13
2018-02-04T02:43:08.804Z,1007.12
2018-02-04T02:44:08.797Z,1007.18
2018-02-04T02:45:08.785Z,1007.17
2018-02-04T02:46:08.793Z,1007.22
2018-02-04T02:47:08.855Z,1007.24
2018-02-04T02:48:09.025Z,1007.25
2018-02-04T02:49:08.775Z,1007.30
2018-02-04T02:50:08.780Z,1007.37
2018-02-04T02:51:08.772Z,1007.36
2018-02-04T02:52:08.771Z,1007.38
2018-02-04T02:53:08.775Z,1007.36
2018-02-04T02:54:08.771Z,1007.40
2018-02-04T02:55:08.769Z,1007.39
2018-02-04T02:56:08.755Z,1007.46
2018-02-04T02:57:08.743Z,1007.42
2018-02-04T02:58:08.836Z,1007.45
2018-02-04T02:59:08.750Z,1007.48
2018-02-04T03:00:08.744Z,1007.46
2018-02-04T03:01:08.743Z,1007.49
2018-02-04T03:02:08.743Z,1007.51
2018-02-04T03:03:08.732Z,1007.52
2018-02-04T03:04:08.732Z,1007.50
2018-02-04T03:05:08.719Z,1007.51
2018-02-04T03:06:08.728Z,1007.51
2018-02-04T03:07:08.714Z,1007.58
2018-02-04T03:08:08.723Z,1007.57
2018-02-04T03:09:08.721Z,1007.57
2018-02-04T03:10:08.721Z,1007.61
2018-02-04T03:11:08.709Z,1007.60
2018-02-04T03:12:08.692Z,1007.60
2018-02-04T03:13:08.705Z,1007.58
2018-02-04T03:14:08.699Z,1007.59
2018-02-04T03:15:08.703Z,1007.67
2018-02-04T03:16:08.690Z,1007.66
2018-02-04T03:17:08.686Z,1007.68
2018-02-04T03:18:08.687Z,1007.70
2018-02-04T03:19:08.685Z,1007.68
2018-02-04T03:20:08.695Z,1007.70
2018-02-04T03:21:08.677Z,1007.75
2018-02-04T03:22:08.680Z,1007.77
2018-02-04T03:23:08.686Z,1007.77
2018-02-04T03:24:08.666Z,1007.77
2018-02-04T03:25:08.665Z,1007.83
2018-02-04T03:26:08.661Z,1007.81
2018-02-04T03:27:08.661Z,1007.84
2018-02-04T03:28:08.663Z,1007.83
2018-02-04T03:29:08.651Z,1007.85
2018-02-04T03:30:08.645Z,1007.82
2018-02-04T03:31:08.650Z,1007.82
2018-02-04T03:32:08.650Z,1007.86
2018-02-04T03:33:08.631Z,1007.89
2018-02-04T03:34:08.638Z,1007.92
2018-02-04T03:35:08.628Z,1007.92
2018-02-04T03:36:09.451Z,1007.96
2018-02-04T03:37:08.640Z,1008.01
2018-02-04T03:38:08.627Z,1008.01
2018-02-04T03:39:08.611Z,1008.07
2018-02-04T03:40:08.712Z,1008.07
2018-02-04T03:41:08.614Z,1008.08
2018-02-04T03:42:09.452Z,1008.09
2018-02-04T03:43:08.611Z,1008.14
2018-02-04T03:44:08.607Z,1008.14
2018-02-04T03:45:08.598Z,1008.17
2018-02-04T03:46:08.625Z,1008.19
2018-02-04T03:47:08.606Z,1008.18
2018-02-04T03:48:08.607Z,1008.24
2018-02-04T03:49:08.663Z,1008.24
2018-02-04T03:50:08.637Z,1008.24
2018-02-04T03:51:08.584Z,1008.18
2018-02-04T03:52:08.584Z,1008.23
2018-02-04T03:53:08.577Z,1008.25
2018-02-04T03:54:08.570Z,1008.26
2018-02-04T03:55:08.566Z,1008.24
2018-02-04T03:56:08.563Z,1008.29
2018-02-04T03:57:08.623Z,1008.32
2018-02-04T03:58:08.559Z,1008.34
2018-02-04T03:59:08.558Z,1008.35
2018-02-04T04:00:08.543Z,1008.35
2018-02-04T04:01:08.562Z,1008.32
2018-02-04T04:02:08.571Z,1008.36
2018-02-04T04:03:08.545Z,1008.32
2018-02-04T04:04:08.594Z,1008.36
2018-02-04T04:05:08.538Z,1008.34
2018-02-04T04:06:08.533Z,1008.36
2018-02-04T04:07:08.573Z,1008.38
2018-02-04T04:08:08.590Z,1008.36
2018-02-04T04:09:08.524Z,1008.37
2018-02-04T04:10:08.528Z,1008.37
2018-02-04T04:11:08.517Z,1008.41
2018-02-04T04:12:08.515Z,1008.46
2018-02-04T04:13:08.510Z,1008.42
2018-02-04T04:14:08.511Z,1008.47
2018-02-04T04:15:08.547Z,1008.53
2018-02-04T04:16:08.499Z,1008.55
2018-02-04T04:17:08.492Z,1008.59
2018-02-04T04:18:08.490Z,1008.59
2018-02-04T04:19:08.494Z,1008.59
2018-02-04T04:20:08.503Z,1008.62
2018-02-04T04:21:08.484Z,1008.62
2018-02-04T04:22:08.505Z,1008.61
2018-02-04T04:23:08.489Z,1008.61
2018-02-04T04:24:08.481Z,1008.66
2018-02-04T04:25:08.471Z,1008.64
2018-02-04T04:26:08.473Z,1008.67
2018-02-04T04:27:08.473Z,1008.69
2018-02-04T04:28:08.487Z,1008.76
2018-02-04T04:29:08.461Z,1008.75
2018-02-04T04:30:08.459Z,1008.71
2018-02-04T04:31:08.459Z,1008.81
2018-02-04T04:32:08.466Z,1008.78
2018-02-04T04:33:08.447Z,1008.79
2018-02-04T04:34:08.450Z,1008.82
2018-02-04T04:35:08.442Z,1008.82
2018-02-04T04:36:08.437Z,1008.86
2018-02-04T04:37:08.430Z,1008.87
2018-02-04T04:38:08.431Z,1008.87
2018-02-04T04:39:08.429Z,1008.89
2018-02-04T04:40:08.418Z,1008.92
2018-02-04T04:41:08.431Z,1008.89
2018-02-04T04:42:08.420Z,1008.90
2018-02-04T04:43:08.413Z,1008.92
2018-02-04T04:44:08.410Z,1008.92
2018-02-04T04:45:08.402Z,1008.92
2018-02-04T04:46:08.413Z,1008.94
2018-02-04T04:47:08.410Z,1008.93
2018-02-04T04:48:08.409Z,1008.93
2018-02-04T04:49:08.398Z,1008.99
2018-02-04T04:50:08.385Z,1008.95
2018-02-04T04:51:08.391Z,1008.93
2018-02-04T04:52:08.391Z,1008.99
2018-02-04T04:53:08.383Z,1009.01
2018-02-04T04:54:08.963Z,1009.05
2018-02-04T04:55:08.376Z,1009.01
2018-02-04T04:56:08.378Z,1009.00
2018-02-04T04:57:08.377Z,1009.03
2018-02-04T04:58:08.359Z,1009.05
2018-02-04T04:59:08.358Z,1009.06
2018-02-04T05:00:08.354Z,1009.07
2018-02-04T05:01:08.350Z,1009.10
2018-02-04T05:02:08.353Z,1009.13
2018-02-04T05:03:08.362Z,1009.12
2018-02-04T05:04:08.354Z,1009.12
2018-02-04T05:05:08.353Z,1009.12
2018-02-04T05:06:08.340Z,1009.10
2018-02-04T05:07:08.484Z,1009.07
2018-02-04T05:08:08.340Z,1009.09
2018-02-04T05:09:08.330Z,1009.07
2018-02-04T05:10:08.330Z,1009.08
2018-02-04T05:11:08.327Z,1009.09
2018-02-04T05:12:08.322Z,1009.12
2018-02-04T05:13:08.324Z,1009.15
2018-02-04T05:14:08.321Z,1009.18
2018-02-04T05:15:08.310Z,1009.13
2018-02-04T05:16:08.314Z,1009.17
2018-02-04T05:17:08.312Z,1009.16
2018-02-04T05:18:08.302Z,1009.13
2018-02-04T05:19:08.314Z,1009.16
2018-02-04T05:20:08.965Z,1009.15
2018-02-04T05:21:08.288Z,1009.17
2018-02-04T05:22:08.286Z,1009.15
2018-02-04T05:23:08.287Z,1009.14
2018-02-04T05:24:08.288Z,1009.15
2018-02-04T05:25:08.278Z,1009.14
2018-02-04T05:26:08.278Z,1009.16
2018-02-04T05:27:08.273Z,1009.20
2018-02-04T05:28:08.273Z,1009.22
2018-02-04T05:29:08.266Z,1009.23
2018-02-04T05:30:08.261Z,1009.25
2018-02-04T05:31:08.266Z,1009.24
2018-02-04T05:32:08.245Z,1009.23
2018-02-04T05:33:08.248Z,1009.26
2018-02-04T05:34:08.257Z,1009.27
2018-02-04T05:35:08.257Z,1009.33
2018-02-04T05:36:08.254Z,1009.31
2018-02-04T05:37:08.249Z,1009.27
2018-02-04T05:38:08.243Z,1009.30
2018-02-04T05:39:08.249Z,1009.31
2018-02-04T05:40:08.230Z,1009.33
2018-02-04T05:41:08.322Z,1009.33
2018-02-04T05:42:08.219Z,1009.33
2018-02-04T05:43:08.221Z,1009.35
2018-02-04T05:44:08.232Z,1009.39
2018-02-04T05:45:08.219Z,1009.42
2018-02-04T05:46:08.219Z,1009.38
2018-02-04T05:47:08.211Z,1009.41
2018-02-04T05:48:08.204Z,1009.46
2018-02-04T05:49:08.219Z,1009.46
2018-02-04T05:50:08.206Z,1009.50
2018-02-04T05:51:08.202Z,1009.51
2018-02-04T05:52:08.193Z,1009.53
2018-02-04T05:53:08.190Z,1009.54
2018-02-04T05:54:08.253Z,1009.53
2018-02-04T05:55:08.181Z,1009.57
2018-02-04T05:56:08.195Z,1009.57
2018-02-04T05:57:08.184Z,1009.58
2018-02-04T05:58:08.176Z,1009.55
2018-02-04T05:59:08.183Z,1009.61
2018-02-04T06:00:08.163Z,1009.63
2018-02-04T06:01:08.165Z,1009.63
2018-02-04T06:02:08.154Z,1009.61
2018-02-04T06:03:08.162Z,1009.62
2018-02-04T06:04:08.155Z,1009.65
2018-02-04T06:05:08.147Z,1009.65
2018-02-04T06:06:08.154Z,1009.65
2018-02-04T06:07:08.968Z,1009.71
2018-02-04T06:08:08.142Z,1009.75
2018-02-04T06:09:08.132Z,1009.73
2018-02-04T06:10:08.138Z,1009.72
2018-02-04T06:11:08.141Z,1009.74
2018-02-04T06:12:08.131Z,1009.75
2018-02-04T06:13:08.128Z,1009.76
2018-02-04T06:14:08.127Z,1009.78
2018-02-04T06:15:08.111Z,1009.75
2018-02-04T06:16:08.121Z,1009.74
2018-02-04T06:17:08.120Z,1009.74
2018-02-04T06:18:08.110Z,1009.74
2018-02-04T06:19:08.108Z,1009.76
2018-02-04T06:20:08.108Z,1009.78
2018-02-04T06:21:08.098Z,1009.74
2018-02-04T06:22:08.101Z,1009.78
2018-02-04T06:23:08.973Z,1009.77
2018-02-04T06:24:08.093Z,1009.82
2018-02-04T06:25:08.088Z,1009.83
2018-02-04T06:26:08.079Z,1009.86
2018-02-04T06:27:08.084Z,1009.84
2018-02-04T06:28:08.079Z,1009.86
2018-02-04T06:29:08.082Z,1009.88
2018-02-04T06:30:08.074Z,1009.87
2018-02-04T06:31:08.076Z,1009.91
2018-02-04T06:32:08.068Z,1009.89
2018-02-04T06:33:08.068Z,1009.85
2018-02-04T06:34:08.061Z,1009.87
2018-02-04T06:35:08.057Z,1009.88
2018-02-04T06:36:08.064Z,1009.92
2018-02-04T06:37:08.055Z,1009.94
2018-02-04T06:38:08.047Z,1009.98
2018-02-04T06:39:08.051Z,1010.00
2018-02-04T06:40:08.043Z,1010.04
2018-02-04T06:41:08.054Z,1010.09
2018-02-04T06:42:08.036Z,1010.11
2018-02-04T06:43:08.037Z,1010.09
2018-02-04T06:44:08.027Z,1010.08
2018-02-04T06:45:08.033Z,1010.11
2018-02-04T06:46:08.020Z,1010.08
2018-02-04T06:47:08.024Z,1010.09
2018-02-04T06:48:08.023Z,1010.10
2018-02-04T06:49:08.015Z,1010.10
2018-02-04T06:50:08.015Z,1010.17
2018-02-04T06:51:08.018Z,1010.15
2018-02-04T06:52:08.012Z,1010.17
2018-02-04T06:53:08.005Z,1010.21
2018-02-04T06:54:08.476Z,1010.22
2018-02-04T06:55:07.999Z,1010.20
2018-02-04T06:56:08.008Z,1010.22
2018-02-04T06:57:07.994Z,1010.24
2018-02-04T06:58:07.974Z,1010.26
2018-02-04T06:59:07.982Z,1010.31
2018-02-04T07:00:07.973Z,1010.30
2018-02-04T07:01:07.966Z,1010.30
2018-02-04T07:02:07.970Z,1010.34
2018-02-04T07:03:07.968Z,1010.36
2018-02-04T07:04:07.970Z,1010.36
2018-02-04T07:05:07.965Z,1010.38
2018-02-04T07:06:07.958Z,1010.39
2018-02-04T07:07:07.956Z,1010.41
2018-02-04T07:08:07.949Z,1010.44
2018-02-04T07:09:07.939Z,1010.44
2018-02-04T07:10:07.950Z,1010.47
2018-02-04T07:11:07.932Z,1010.50
2018-02-04T07:12:07.937Z,1010.52
2018-02-04T07:13:07.937Z,1010.54
2018-02-04T07:14:07.937Z,1010.53
2018-02-04T07:15:07.927Z,1010.54
2018-02-04T07:16:07.920Z,1010.55
2018-02-04T07:17:07.921Z,1010.56
2018-02-04T07:18:07.916Z,1010.57
2018-02-04T07:19:07.912Z,1010.61
2018-02-04T07:20:07.904Z,1010.59
2018-02-04T07:21:07.899Z,1010.61
2018-02-04T07:22:07.905Z,1010.57
2018-02-04T07:23:07.908Z,1010.62
2018-02-04T07:24:07.897Z,1010.63
2018-02-04T07:25:07.896Z,1010.60
2018-02-04T07:26:07.910Z,1010.60
2018-02-04T07:27:07.884Z,1010.65
2018-02-04T07:28:07.887Z,1010.68
2018-02-04T07:29:07.932Z,1010.72
2018-02-04T07:30:07.876Z,1010.75
2018-02-04T07:31:07.874Z,1010.76
2018-02-04T07:32:07.874Z,1010.81
2018-02-04T07:33:07.863Z,1010.83
2018-02-04T07:34:08.489Z,1010.85
2018-02-04T07:35:07.858Z,1010.84
2018-02-04T07:36:07.861Z,1010.86
2018-02-04T07:37:07.857Z,1010.87
2018-02-04T07:38:07.909Z,1010.91
2018-02-04T07:39:07.842Z,1010.96
2018-02-04T07:40:07.848Z,1010.97
2018-02-04T07:41:07.888Z,1011.00
2018-02-04T07:42:08.493Z,1011.04
2018-02-04T07:43:07.839Z,1011.02
2018-02-04T07:44:07.836Z,1011.03
2018-02-04T07:45:07.864Z,1011.05
2018-02-04T07:46:07.829Z,1011.06
2018-02-04T07:47:07.819Z,1011.13
2018-02-04T07:48:07.832Z,1011.17
2018-02-04T07:49:07.806Z,1011.19
2018-02-04T07:50:07.813Z,1011.16
2018-02-04T07:51:07.828Z,1011.20
2018-02-04T07:52:08.058Z,1011.16
2018-02-04T07:53:07.819Z,1011.21
2018-02-04T07:54:08.482Z,1011.26
2018-02-04T07:55:07.800Z,1011.23
2018-02-04T07:56:07.806Z,1011.25
2018-02-04T07:57:08.476Z,1011.27
2018-02-04T07:58:07.788Z,1011.26
2018-02-04T07:59:07.791Z,1011.29
2018-02-04T08:00:07.789Z,1011.31
2018-02-04T08:01:07.775Z,1011.31
2018-02-04T08:02:07.761Z,1011.31
2018-02-04T08:03:07.763Z,1011.34
2018-02-04T08:04:07.770Z,1011.34
2018-02-04T08:05:07.775Z,1011.38
2018-02-04T08:06:07.757Z,1011.40
2018-02-04T08:07:07.747Z,1011.45
2018-02-04T08:08:07.757Z,1011.43
2018-02-04T08:09:07.757Z,1011.48
2018-02-04T08:10:07.785Z,1011.51
2018-02-04T08:11:07.741Z,1011.52
2018-02-04T08:12:07.746Z,1011.53
2018-02-04T08:13:07.770Z,1011.54
2018-02-04T08:14:07.738Z,1011.57
2018-02-04T08:15:07.771Z,1011.60
2018-02-04T08:16:07.720Z,1011.62
2018-02-04T08:17:07.722Z,1011.65
2018-02-04T08:18:07.730Z,1011.65
2018-02-04T08:19:07.725Z,1011.67
2018-02-04T08:20:07.727Z,1011.68
2018-02-04T08:21:07.727Z,1011.74
2018-02-04T08:22:07.714Z,1011.76
2018-02-04T08:23:07.724Z,1011.77
2018-02-04T08:24:07.706Z,1011.77
2018-02-04T08:25:07.697Z,1011.82
2018-02-04T08:26:07.704Z,1011.82
2018-02-04T08:27:07.701Z,1011.83
2018-02-04T08:28:08.484Z,1011.82
2018-02-04T08:29:07.700Z,1011.89
2018-02-04T08:30:07.683Z,1011.92
2018-02-04T08:31:07.682Z,1011.95
2018-02-04T08:32:07.680Z,1011.99
2018-02-04T08:33:07.678Z,1011.95
2018-02-04T08:34:07.676Z,1011.96
2018-02-04T08:35:07.674Z,1011.99
2018-02-04T08:36:07.675Z,1011.98
2018-02-04T08:37:07.713Z,1012.00
2018-02-04T08:38:07.662Z,1012.02
2018-02-04T08:39:07.676Z,1012.06
2018-02-04T08:40:07.660Z,1012.03
2018-02-04T08:41:08.483Z,1012.07
2018-02-04T08:42:07.719Z,1012.07
2018-02-04T08:43:07.642Z,1012.11
2018-02-04T08:44:07.646Z,1012.09
2018-02-04T08:45:07.644Z,1012.12
2018-02-04T08:46:07.647Z,1012.14
2018-02-04T08:47:07.642Z,1012.17
2018-02-04T08:48:07.641Z,1012.21
2018-02-04T08:49:07.639Z,1012.20
2018-02-04T08:50:07.624Z,1012.20
2018-02-04T08:51:07.624Z,1012.19
2018-02-04T08:52:07.624Z,1012.19
2018-02-04T08:53:07.624Z,1012.25
2018-02-04T08:54:08.487Z,1012.25
2018-02-04T08:55:07.615Z,1012.27
2018-02-04T08:56:07.622Z,1012.27
2018-02-04T08:57:07.615Z,1012.27
2018-02-04T08:58:07.610Z,1012.33
2018-02-04T08:59:07.610Z,1012.34
2018-02-04T09:00:07.610Z,1012.37
2018-02-04T09:01:07.603Z,1012.37
2018-02-04T09:02:07.595Z,1012.37
2018-02-04T09:03:07.587Z,1012.40
2018-02-04T09:04:07.594Z,1012.40
2018-02-04T09:05:07.582Z,1012.46
2018-02-04T09:06:07.586Z,1012.48
2018-02-04T09:07:07.591Z,1012.50
2018-02-04T09:08:07.566Z,1012.49
2018-02-04T09:09:07.574Z,1012.53
2018-02-04T09:10:07.567Z,1012.59
2018-02-04T09:11:07.566Z,1012.58
2018-02-04T09:12:07.559Z,1012.67
2018-02-04T09:13:07.578Z,1012.73
2018-02-04T09:14:07.563Z,1012.75
2018-02-04T09:15:07.655Z,1012.72
2018-02-04T09:16:07.556Z,1012.78
2018-02-04T09:17:07.549Z,1012.82
2018-02-04T09:18:07.553Z,1012.85
2018-02-04T09:19:07.548Z,1012.85
2018-02-04T09:20:07.545Z,1012.95
2018-02-04T09:21:07.581Z,1012.93
2018-02-04T09:22:07.545Z,1012.95
2018-02-04T09:23:07.540Z,1012.96
2018-02-04T09:24:07.542Z,1013.00
2018-02-04T09:25:07.532Z,1012.97
2018-02-04T09:26:07.522Z,1012.98
2018-02-04T09:27:07.518Z,1013.02
2018-02-04T09:28:07.642Z,1013.05
2018-02-04T09:29:07.522Z,1013.07
2018-02-04T09:30:07.528Z,1013.09
2018-02-04T09:31:07.518Z,1013.07
2018-02-04T09:32:07.518Z,1013.11
2018-02-04T09:33:07.513Z,1013.17
2018-02-04T09:34:07.510Z,1013.16
2018-02-04T09:35:07.520Z,1013.17
2018-02-04T09:36:07.506Z,1013.23
2018-02-04T09:37:07.492Z,1013.32
2018-02-04T09:38:07.499Z,1013.41
2018-02-04T09:39:07.546Z,1013.44
2018-02-04T09:40:07.493Z,1013.44
2018-02-04T09:41:07.497Z,1013.46
2018-02-04T09:42:07.489Z,1013.38
2018-02-04T09:43:07.494Z,1013.40
2018-02-04T09:44:07.492Z,1013.38
2018-02-04T09:45:07.482Z,1013.46
2018-02-04T09:46:07.478Z,1013.43
2018-02-04T09:47:07.470Z,1013.47
2018-02-04T09:48:07.585Z,1013.50
2018-02-04T09:49:07.466Z,1013.52
2018-02-04T09:50:07.464Z,1013.55
2018-02-04T09:51:07.993Z,1013.68
2018-02-04T09:52:07.460Z,1013.56
2018-02-04T09:53:07.469Z,1013.58
2018-02-04T09:54:07.480Z,1013.67
2018-02-04T09:55:07.471Z,1013.79
2018-02-04T09:56:07.456Z,1013.71
2018-02-04T09:57:07.474Z,1013.75
2018-02-04T09:58:07.453Z,1013.83
2018-02-04T09:59:07.441Z,1013.84
2018-02-04T10:00:07.442Z,1013.92
2018-02-04T10:01:07.445Z,1013.89
2018-02-04T10:02:07.435Z,1013.98
2018-02-04T10:03:07.439Z,1014.11
2018-02-04T10:04:07.422Z,1014.15
2018-02-04T10:05:07.434Z,1014.20
2018-02-04T10:06:07.430Z,1014.27
2018-02-04T10:07:07.420Z,1014.33
2018-02-04T10:08:07.424Z,1014.35
2018-02-04T10:09:07.424Z,1014.33
2018-02-04T10:10:07.420Z,1014.34
2018-02-04T10:11:07.424Z,1014.36
2018-02-04T10:12:08.004Z,1014.37
2018-02-04T10:13:07.412Z,1014.40
2018-02-04T10:14:07.410Z,1014.36
2018-02-04T10:15:07.415Z,1014.31
2018-02-04T10:16:07.406Z,1014.17
2018-02-04T10:17:07.402Z,1014.13
2018-02-04T10:18:07.409Z,1014.09
2018-02-04T10:19:07.409Z,1014.18
2018-02-04T10:20:07.413Z,1014.23
2018-02-04T10:21:07.396Z,1014.16
2018-02-04T10:22:07.423Z,1014.13
2018-02-04T10:23:07.401Z,1014.15
2018-02-04T10:24:07.398Z,1014.34
2018-02-04T10:25:07.996Z,1014.71
2018-02-04T10:26:07.397Z,1014.75
2018-02-04T10:27:07.391Z,1014.83
2018-02-04T10:28:07.399Z,1014.85
2018-02-04T10:29:07.388Z,1014.86
2018-02-04T10:30:07.393Z,1014.85
2018-02-04T10:31:07.395Z,1014.82
2018-02-04T10:32:07.390Z,1014.75
2018-02-04T10:33:07.385Z,1014.84
2018-02-04T10:34:07.388Z,1014.67
2018-02-04T10:35:07.382Z,1014.56
2018-02-04T10:36:07.380Z,1014.53
2018-02-04T10:37:07.377Z,1014.50
2018-02-04T10:38:07.436Z,1014.67
2018-02-04T10:39:07.382Z,1014.58
2018-02-04T10:40:07.388Z,1014.56
2018-02-04T10:41:07.390Z,1014.82
2018-02-04T10:42:07.381Z,1015.03
2018-02-04T10:43:07.380Z,1014.86
2018-02-04T10:44:07.371Z,1014.69
2018-02-04T10:45:07.387Z,1014.74
2018-02-04T10:46:07.391Z,1014.73
2018-02-04T10:47:07.382Z,1014.63
2018-02-04T10:48:07.378Z,1015.00
2018-02-04T10:49:07.382Z,1014.59
2018-02-04T10:50:07.386Z,1014.58
2018-02-04T10:51:07.374Z,1014.62
2018-02-04T10:52:07.471Z,1014.64
2018-02-04T10:53:07.368Z,1014.76
2018-02-04T10:54:07.410Z,1014.67
2018-02-04T10:55:07.384Z,1014.67
2018-02-04T10:56:07.377Z,1014.59
2018-02-04T10:57:07.391Z,1014.63
2018-02-04T10:58:07.384Z,1014.68
2018-02-04T10:59:07.391Z,1014.62
2018-02-04T11:00:07.385Z,1014.61
2018-02-04T11:01:07.373Z,1014.60
2018-02-04T11:02:07.376Z,1014.62
2018-02-04T11:03:07.379Z,1014.68
2018-02-04T11:04:07.372Z,1014.66
2018-02-04T11:05:07.554Z,1014.71
2018-02-04T11:06:07.388Z,1014.78
2018-02-04T11:07:07.373Z,1014.85
2018-02-04T11:08:07.368Z,1014.95
2018-02-04T11:09:08.006Z,1014.96
2018-02-04T11:10:07.368Z,1015.00
2018-02-04T11:11:07.379Z,1015.05
2018-02-04T11:12:07.404Z,1015.29
2018-02-04T11:13:07.418Z,1015.64
2018-02-04T11:14:07.370Z,1015.38
2018-02-04T11:15:07.444Z,1015.89
2018-02-04T11:16:07.359Z,1015.51
2018-02-04T11:17:07.358Z,1015.72
2018-02-04T11:18:07.356Z,1015.27
2018-02-04T11:19:07.367Z,1015.49
2018-02-04T11:20:07.363Z,1015.16
2018-02-04T11:21:07.379Z,1014.97
2018-02-04T11:22:07.367Z,1014.89
2018-02-04T11:23:07.365Z,1014.91
2018-02-04T11:24:07.352Z,1014.91
2018-02-04T11:25:07.355Z,1014.87
2018-02-04T11:26:07.404Z,1014.87
2018-02-04T11:27:07.362Z,1014.90
2018-02-04T11:28:07.367Z,1014.93
2018-02-04T11:29:07.362Z,1014.99
2018-02-04T11:30:07.393Z,1014.99
2018-02-04T11:31:07.376Z,1015.04
2018-02-04T11:32:07.359Z,1015.04
2018-02-04T11:33:07.364Z,1015.06
2018-02-04T11:34:07.355Z,1015.02
2018-02-04T11:35:07.363Z,1015.01
2018-02-04T11:36:07.387Z,1015.09
2018-02-04T11:37:07.361Z,1015.05
2018-02-04T11:38:07.355Z,1015.02
2018-02-04T11:39:07.360Z,1015.03
2018-02-04T11:40:07.358Z,1015.02
2018-02-04T11:41:07.405Z,1015.06
2018-02-04T11:42:07.361Z,1015.04
2018-02-04T11:43:07.357Z,1015.05
2018-02-04T11:44:07.356Z,1015.04
2018-02-04T11:45:07.441Z,1015.08
2018-02-04T11:46:07.348Z,1015.08
2018-02-04T11:47:07.347Z,1015.16
2018-02-04T11:48:07.358Z,1015.18
2018-02-04T11:49:07.354Z,1015.18
2018-02-04T11:50:07.348Z,1015.25
2018-02-04T11:51:07.344Z,1015.29
2018-02-04T11:52:07.343Z,1015.30
2018-02-04T11:53:07.341Z,1015.31
2018-02-04T11:54:07.351Z,1015.30
2018-02-04T11:55:07.343Z,1015.42
2018-02-04T11:56:07.336Z,1015.42
2018-02-04T11:57:07.342Z,1015.40
2018-02-04T11:58:07.367Z,1015.42
2018-02-04T11:59:07.335Z,1015.46
2018-02-04T12:00:07.386Z,1015.48
2018-02-04T12:01:07.340Z,1015.49
2018-02-04T12:02:07.325Z,1015.52
2018-02-04T12:03:07.335Z,1015.54
2018-02-04T12:04:07.314Z,1015.57
2018-02-04T12:05:07.322Z,1015.62